TimeEDT,TemperatureF,Dew PointF,Humidity,Sea Level PressureIn,VisibilityMPH,Wind Direction,Wind SpeedMPH,Gust SpeedMPH,PrecipitationIn,Events,Conditions,WindDirDegrees,DateUTC
12:54 AM,61.0,61.0,100,30.02,8.0,SSW,3.5,-,N/A,,Clear,210,2012-10-06 04:54:00
1:54 AM,60.1,60.1,100,30.01,6.0,SSW,4.6,-,N/A,,Clear,200,2012-10-06 05:54:00
2:54 AM,59.0,59.0,100,29.99,5.0,SSW,4.6,-,N/A,,Clear,210,2012-10-06 06:54:00
3:54 AM,60.1,60.1,100,29.97,4.0,SSW,5.8,-,N/A,,Clear,200,2012-10-06 07:54:00
4:54 AM,57.9,57.9,100,29.96,3.0,SSW,6.9,-,N/A,,Clear,210,2012-10-06 08:54:00
5:09 AM,57.9,57.9,100,29.98,2.5,SSW,6.9,-,N/A,,Clear,210,2012-10-06 09:09:00
5:18 AM,59.0,59.0,100,29.98,3.0,SSW,5.8,-,N/A,,Clear,210,2012-10-06 09:18:00
5:38 AM,59.0,59.0,100,29.98,2.5,SSW,5.8,-,N/A,,Clear,200,2012-10-06 09:38:00
5:51 AM,59.0,59.0,100,29.98,3.0,SSW,5.8,-,N/A,,Clear,210,2012-10-06 09:51:00
5:54 AM,59.0,59.0,100,29.96,3.0,SSW,5.8,-,N/A,,Clear,210,2012-10-06 09:54:00
6:01 AM,59.0,59.0,100,29.99,2.5,SSW,5.8,-,N/A,,Clear,210,2012-10-06 10:01:00
6:54 AM,57.9,57.9,100,29.97,2.0,SW,5.8,-,N/A,,Clear,220,2012-10-06 10:54:00
7:16 AM,57.9,57.9,100,30.00,1.5,SSW,6.9,-,N/A,,Clear,200,2012-10-06 11:16:00
7:54 AM,59.0,59.0,100,29.98,1.0,SW,5.8,-,N/A,,Clear,220,2012-10-06 11:54:00
8:30 AM,62.1,62.1,100,30.00,2.5,SW,4.6,-,N/A,,Clear,220,2012-10-06 12:30:00
8:43 AM,62.1,62.1,100,30.00,3.0,SW,5.8,-,N/A,,Clear,220,2012-10-06 12:43:00
8:54 AM,63.0,62.1,97,29.98,4.0,SW,5.8,-,N/A,,Clear,230,2012-10-06 12:54:00
9:54 AM,68.0,63.0,84,29.98,8.0,West,4.6,-,N/A,,Clear,280,2012-10-06 13:54:00
10:54 AM,72.0,63.0,73,29.96,9.0,Calm,Calm,-,N/A,,Clear,0,2012-10-06 14:54:00
11:54 AM,78.1,63.0,60,29.95,10.0,SW,5.8,-,N/A,,Clear,230,2012-10-06 15:54:00
12:54 PM,80.1,60.1,50,29.94,10.0,SW,10.4,-,N/A,,Clear,220,2012-10-06 16:54:00
1:54 PM,81.0,61.0,50,29.91,10.0,West,8.1,-,N/A,,Clear,260,2012-10-06 17:54:00
2:54 PM,82.0,60.1,47,29.89,10.0,Variable,5.8,-,N/A,,Clear,0,2012-10-06 18:54:00
3:54 PM,81.0,59.0,47,29.88,10.0,NW,3.5,-,N/A,,Overcast,320,2012-10-06 19:54:00
4:54 PM,81.0,59.0,47,29.88,10.0,West,3.5,-,N/A,,Scattered Clouds,280,2012-10-06 20:54:00
5:54 PM,79.0,64.9,62,29.89,10.0,Calm,Calm,-,N/A,,Mostly Cloudy,0,2012-10-06 21:54:00
6:54 PM,73.9,66.9,79,29.90,10.0,Calm,Calm,-,N/A,,Overcast,0,2012-10-06 22:54:00
7:54 PM,72.0,66.0,81,29.92,10.0,Calm,Calm,-,N/A,,Overcast,0,2012-10-06 23:54:00
8:54 PM,72.0,66.0,81,29.92,10.0,NNE,5.8,-,N/A,,Overcast,20,2012-10-07 00:54:00
9:19 PM,68.0,66.9,96,29.97,1.8,North,11.5,-,0.13,Rain,Heavy Rain,360,2012-10-07 01:19:00
9:26 PM,66.9,66.9,100,29.97,1.2,North,10.4,-,0.25,Rain-Thunderstorm,Heavy Thunderstorms and Rain,360,2012-10-07 01:26:00
9:35 PM,66.9,66.9,100,29.97,3.0,NE,5.8,-,0.25,Rain,Light Rain,40,2012-10-07 01:35:00
9:54 PM,68.0,66.9,96,29.94,6.0,Variable,3.5,-,0.26,,Overcast,0,2012-10-07 01:54:00
10:54 PM,66.9,66.0,97,29.95,5.0,Calm,Calm,-,N/A,,Mostly Cloudy,0,2012-10-07 02:54:00